sensor_id;sensor_type;location;lat;lon;timestamp;temperature;humidity
15426;DHT22;7812;50.072;7.036;2023-04-19T00:00:41;10.30;99.90
15426;DHT22;7812;50.072;7.036;2023-04-19T00:03:08;10.20;99.90
15426;DHT22;7812;50.072;7.036;2023-04-19T00:05:35;10.30;99.90
15426;DHT22;7812;50.072;7.036;2023-04-19T00:08:05;10.20;99.90
15426;DHT22;7812;50.072;7.036;2023-04-19T00:10:31;10.20;99.90
15426;DHT22;7812;50.072;7.036;2023-04-19T00:12:56;10.30;99.90
15426;DHT22;7812;50.072;7.036;2023-04-19T00:15:22;10.20;99.90
15426;DHT22;7812;50.072;7.036;2023-04-19T00:17:48;10.20;99.90
15426;DHT22;7812;50.072;7.036;2023-04-19T00:20:15;10.20;99.90
15426;DHT22;7812;50.072;7.036;2023-04-19T00:22:40;10.20;99.90
15426;DHT22;7812;50.072;7.036;2023-04-19T00:25:06;10.20;99.90
15426;DHT22;7812;50.072;7.036;2023-04-19T00:27:32;10.30;99.90
15426;DHT22;7812;50.072;7.036;2023-04-19T00:29:58;10.20;99.90
15426;DHT22;7812;50.072;7.036;2023-04-19T00:32:23;10.20;99.90
15426;DHT22;7812;50.072;7.036;2023-04-19T00:34:49;10.20;99.90
15426;DHT22;7812;50.072;7.036;2023-04-19T00:37:15;10.20;99.90
15426;DHT22;7812;50.072;7.036;2023-04-19T00:39:56;10.20;99.90
15426;DHT22;7812;50.072;7.036;2023-04-19T00:42:22;10.20;99.90
15426;DHT22;7812;50.072;7.036;2023-04-19T00:44:49;10.20;99.90
15426;DHT22;7812;50.072;7.036;2023-04-19T00:47:14;10.20;99.90
15426;DHT22;7812;50.072;7.036;2023-04-19T00:49:40;10.20;99.90
15426;DHT22;7812;50.072;7.036;2023-04-19T00:52:07;10.30;99.90
15426;DHT22;7812;50.072;7.036;2023-04-19T00:54:33;10.20;99.90
15426;DHT22;7812;50.072;7.036;2023-04-19T00:57:00;10.20;99.90
15426;DHT22;7812;50.072;7.036;2023-04-19T00:59:25;10.30;99.90
15426;DHT22;7812;50.072;7.036;2023-04-19T01:01:51;10.30;99.90
15426;DHT22;7812;50.072;7.036;2023-04-19T01:04:17;10.30;99.90
15426;DHT22;7812;50.072;7.036;2023-04-19T01:06:43;10.30;99.90
15426;DHT22;7812;50.072;7.036;2023-04-19T01:09:08;10.20;99.90
15426;DHT22;7812;50.072;7.036;2023-04-19T01:11:34;10.10;99.90
15426;DHT22;7812;50.072;7.036;2023-04-19T01:14:01;10.20;99.90
15426;DHT22;7812;50.072;7.036;2023-04-19T01:16:27;10.10;99.90
15426;DHT22;7812;50.072;7.036;2023-04-19T01:18:53;10.10;99.90
15426;DHT22;7812;50.072;7.036;2023-04-19T01:21:18;10.10;99.90
15426;DHT22;7812;50.072;7.036;2023-04-19T01:23:44;10.20;99.90
15426;DHT22;7812;50.072;7.036;2023-04-19T01:26:10;10.10;99.90
15426;DHT22;7812;50.072;7.036;2023-04-19T01:28:36;10.10;99.90
15426;DHT22;7812;50.072;7.036;2023-04-19T01:31:02;10.20;99.90
15426;DHT22;7812;50.072;7.036;2023-04-19T01:33:28;10.10;99.90
15426;DHT22;7812;50.072;7.036;2023-04-19T01:35:53;10.10;99.90
15426;DHT22;7812;50.072;7.036;2023-04-19T01:38:19;10.00;99.90
15426;DHT22;7812;50.072;7.036;2023-04-19T01:40:45;10.10;99.90
15426;DHT22;7812;50.072;7.036;2023-04-19T01:43:17;10.10;99.90
15426;DHT22;7812;50.072;7.036;2023-04-19T01:45:43;10.10;99.90
15426;DHT22;7812;50.072;7.036;2023-04-19T01:48:09;10.10;99.90
15426;DHT22;7812;50.072;7.036;2023-04-19T01:50:35;10.10;99.90
15426;DHT22;7812;50.072;7.036;2023-04-19T01:53:01;10.20;99.90
15426;DHT22;7812;50.072;7.036;2023-04-19T01:55:27;10.00;99.90
15426;DHT22;7812;50.072;7.036;2023-04-19T01:57:53;10.00;99.90
15426;DHT22;7812;50.072;7.036;2023-04-19T02:00:19;10.00;99.90
15426;DHT22;7812;50.072;7.036;2023-04-19T02:02:45;10.00;99.90
15426;DHT22;7812;50.072;7.036;2023-04-19T02:05:10;10.00;99.90
15426;DHT22;7812;50.072;7.036;2023-04-19T02:07:36;10.00;99.90
15426;DHT22;7812;50.072;7.036;2023-04-19T02:10:03;9.90;99.90
15426;DHT22;7812;50.072;7.036;2023-04-19T02:12:32;9.90;99.90
15426;DHT22;7812;50.072;7.036;2023-04-19T02:14:59;9.90;99.90
15426;DHT22;7812;50.072;7.036;2023-04-19T02:17:27;9.90;99.90
15426;DHT22;7812;50.072;7.036;2023-04-19T02:19:53;10.00;99.90
15426;DHT22;7812;50.072;7.036;2023-04-19T02:22:19;9.80;99.90
15426;DHT22;7812;50.072;7.036;2023-04-19T02:24:44;9.80;99.90
15426;DHT22;7812;50.072;7.036;2023-04-19T02:27:11;9.80;99.90
15426;DHT22;7812;50.072;7.036;2023-04-19T02:29:37;9.70;99.90
15426;DHT22;7812;50.072;7.036;2023-04-19T02:32:04;9.80;99.90
15426;DHT22;7812;50.072;7.036;2023-04-19T02:34:31;9.70;99.90
15426;DHT22;7812;50.072;7.036;2023-04-19T02:36:57;9.60;99.90
15426;DHT22;7812;50.072;7.036;2023-04-19T02:39:23;9.60;99.90
15426;DHT22;7812;50.072;7.036;2023-04-19T02:41:49;9.60;99.90
15426;DHT22;7812;50.072;7.036;2023-04-19T02:44:15;9.60;99.90
15426;DHT22;7812;50.072;7.036;2023-04-19T02:46:44;9.60;99.90
15426;DHT22;7812;50.072;7.036;2023-04-19T02:49:12;9.60;99.90
15426;DHT22;7812;50.072;7.036;2023-04-19T02:51:38;9.70;99.90
15426;DHT22;7812;50.072;7.036;2023-04-19T02:54:10;9.70;99.90
15426;DHT22;7812;50.072;7.036;2023-04-19T02:56:36;9.80;99.90
15426;DHT22;7812;50.072;7.036;2023-04-19T02:59:02;9.80;99.90
15426;DHT22;7812;50.072;7.036;2023-04-19T03:01:29;9.90;99.90
15426;DHT22;7812;50.072;7.036;2023-04-19T03:03:56;9.90;99.90
15426;DHT22;7812;50.072;7.036;2023-04-19T03:06:27;9.90;99.90
15426;DHT22;7812;50.072;7.036;2023-04-19T03:08:53;9.90;99.90
15426;DHT22;7812;50.072;7.036;2023-04-19T03:11:18;9.90;99.90
15426;DHT22;7812;50.072;7.036;2023-04-19T03:13:44;9.80;99.90
15426;DHT22;7812;50.072;7.036;2023-04-19T03:16:10;9.80;99.90
15426;DHT22;7812;50.072;7.036;2023-04-19T03:18:36;9.80;99.90
15426;DHT22;7812;50.072;7.036;2023-04-19T03:21:02;9.80;99.90
15426;DHT22;7812;50.072;7.036;2023-04-19T03:23:28;9.90;99.90
15426;DHT22;7812;50.072;7.036;2023-04-19T03:25:54;9.90;99.90
15426;DHT22;7812;50.072;7.036;2023-04-19T03:28:21;9.90;99.90
15426;DHT22;7812;50.072;7.036;2023-04-19T03:30:47;9.90;99.90
15426;DHT22;7812;50.072;7.036;2023-04-19T03:33:12;9.90;99.90
15426;DHT22;7812;50.072;7.036;2023-04-19T03:35:38;9.90;99.90
15426;DHT22;7812;50.072;7.036;2023-04-19T03:38:03;9.90;99.90
15426;DHT22;7812;50.072;7.036;2023-04-19T03:40:31;9.90;99.90
15426;DHT22;7812;50.072;7.036;2023-04-19T03:42:57;9.90;99.90
15426;DHT22;7812;50.072;7.036;2023-04-19T03:45:23;9.90;99.90
15426;DHT22;7812;50.072;7.036;2023-04-19T03:47:49;9.90;99.90
15426;DHT22;7812;50.072;7.036;2023-04-19T03:50:14;9.80;99.90
15426;DHT22;7812;50.072;7.036;2023-04-19T03:52:40;9.60;99.90
15426;DHT22;7812;50.072;7.036;2023-04-19T03:55:06;9.60;99.90
15426;DHT22;7812;50.072;7.036;2023-04-19T03:57:32;9.60;99.90
15426;DHT22;7812;50.072;7.036;2023-04-19T03:59:58;9.60;99.90
15426;DHT22;7812;50.072;7.036;2023-04-19T04:02:24;9.60;99.90
15426;DHT22;7812;50.072;7.036;2023-04-19T04:04:53;9.60;99.90
15426;DHT22;7812;50.072;7.036;2023-04-19T04:07:19;9.50;99.90
15426;DHT22;7812;50.072;7.036;2023-04-19T04:09:46;9.60;99.90
15426;DHT22;7812;50.072;7.036;2023-04-19T04:12:12;9.70;99.90
15426;DHT22;7812;50.072;7.036;2023-04-19T04:14:38;9.60;99.90
15426;DHT22;7812;50.072;7.036;2023-04-19T04:17:04;9.60;99.90
15426;DHT22;7812;50.072;7.036;2023-04-19T04:19:29;9.50;99.90
15426;DHT22;7812;50.072;7.036;2023-04-19T04:21:56;9.50;99.90
15426;DHT22;7812;50.072;7.036;2023-04-19T04:24:22;9.50;99.90
15426;DHT22;7812;50.072;7.036;2023-04-19T04:26:48;9.50;99.90
15426;DHT22;7812;50.072;7.036;2023-04-19T04:29:17;9.60;99.90
15426;DHT22;7812;50.072;7.036;2023-04-19T04:31:42;9.60;99.90
15426;DHT22;7812;50.072;7.036;2023-04-19T04:34:08;9.50;99.90
15426;DHT22;7812;50.072;7.036;2023-04-19T04:36:34;9.40;99.90
15426;DHT22;7812;50.072;7.036;2023-04-19T04:39:03;9.50;99.90
15426;DHT22;7812;50.072;7.036;2023-04-19T04:41:29;9.50;99.90
15426;DHT22;7812;50.072;7.036;2023-04-19T04:43:56;9.60;99.90
15426;DHT22;7812;50.072;7.036;2023-04-19T04:46:23;9.50;99.90
15426;DHT22;7812;50.072;7.036;2023-04-19T04:48:48;9.50;99.90
15426;DHT22;7812;50.072;7.036;2023-04-19T04:51:14;9.40;99.90
15426;DHT22;7812;50.072;7.036;2023-04-19T04:53:40;9.40;99.90
15426;DHT22;7812;50.072;7.036;2023-04-19T04:56:05;9.40;99.90
15426;DHT22;7812;50.072;7.036;2023-04-19T04:58:31;9.50;99.90
15426;DHT22;7812;50.072;7.036;2023-04-19T05:00:57;9.40;99.90
15426;DHT22;7812;50.072;7.036;2023-04-19T05:03:22;9.40;99.90
15426;DHT22;7812;50.072;7.036;2023-04-19T05:05:51;9.40;99.90
15426;DHT22;7812;50.072;7.036;2023-04-19T05:08:19;9.40;99.90
15426;DHT22;7812;50.072;7.036;2023-04-19T05:10:45;9.40;99.90
15426;DHT22;7812;50.072;7.036;2023-04-19T05:13:11;9.40;99.90
15426;DHT22;7812;50.072;7.036;2023-04-19T05:15:37;9.40;99.90
15426;DHT22;7812;50.072;7.036;2023-04-19T05:18:03;9.50;99.90
15426;DHT22;7812;50.072;7.036;2023-04-19T05:20:28;9.40;99.90
15426;DHT22;7812;50.072;7.036;2023-04-19T05:22:58;9.50;99.90
15426;DHT22;7812;50.072;7.036;2023-04-19T05:25:24;9.70;99.90
15426;DHT22;7812;50.072;7.036;2023-04-19T05:27:51;9.70;99.90
15426;DHT22;7812;50.072;7.036;2023-04-19T05:30:17;9.70;99.90
15426;DHT22;7812;50.072;7.036;2023-04-19T05:32:43;9.80;99.90
15426;DHT22;7812;50.072;7.036;2023-04-19T05:35:09;9.80;99.90
15426;DHT22;7812;50.072;7.036;2023-04-19T05:37:35;9.90;99.90
15426;DHT22;7812;50.072;7.036;2023-04-19T05:40:01;9.80;99.90
15426;DHT22;7812;50.072;7.036;2023-04-19T05:42:30;9.80;99.90
15426;DHT22;7812;50.072;7.036;2023-04-19T05:44:56;9.80;99.90
15426;DHT22;7812;50.072;7.036;2023-04-19T05:47:21;9.80;99.90
15426;DHT22;7812;50.072;7.036;2023-04-19T05:49:47;9.90;99.90
15426;DHT22;7812;50.072;7.036;2023-04-19T05:52:13;10.00;99.90
15426;DHT22;7812;50.072;7.036;2023-04-19T05:54:39;10.00;99.90
15426;DHT22;7812;50.072;7.036;2023-04-19T05:57:05;10.00;99.90
15426;DHT22;7812;50.072;7.036;2023-04-19T05:59:31;10.00;99.90
15426;DHT22;7812;50.072;7.036;2023-04-19T06:01:58;10.00;99.90
15426;DHT22;7812;50.072;7.036;2023-04-19T06:04:24;10.00;99.90
15426;DHT22;7812;50.072;7.036;2023-04-19T06:06:49;9.90;99.90
15426;DHT22;7812;50.072;7.036;2023-04-19T06:09:15;10.00;99.90
15426;DHT22;7812;50.072;7.036;2023-04-19T06:11:43;10.10;99.90
15426;DHT22;7812;50.072;7.036;2023-04-19T06:14:10;10.10;99.90
15426;DHT22;7812;50.072;7.036;2023-04-19T06:16:35;10.00;99.90
15426;DHT22;7812;50.072;7.036;2023-04-19T06:19:01;9.90;99.90
15426;DHT22;7812;50.072;7.036;2023-04-19T06:21:29;9.90;99.90
15426;DHT22;7812;50.072;7.036;2023-04-19T06:23:55;9.90;99.90
15426;DHT22;7812;50.072;7.036;2023-04-19T06:26:21;10.00;99.90
15426;DHT22;7812;50.072;7.036;2023-04-19T06:28:47;10.00;99.90
15426;DHT22;7812;50.072;7.036;2023-04-19T06:31:12;10.00;99.90
15426;DHT22;7812;50.072;7.036;2023-04-19T06:33:38;10.00;99.90
15426;DHT22;7812;50.072;7.036;2023-04-19T06:36:04;10.00;99.90
15426;DHT22;7812;50.072;7.036;2023-04-19T06:38:30;10.10;99.90
15426;DHT22;7812;50.072;7.036;2023-04-19T06:40:56;10.10;99.90
15426;DHT22;7812;50.072;7.036;2023-04-19T06:43:22;10.20;99.90
15426;DHT22;7812;50.072;7.036;2023-04-19T06:45:48;10.30;99.90
15426;DHT22;7812;50.072;7.036;2023-04-19T06:48:14;10.30;99.90
15426;DHT22;7812;50.072;7.036;2023-04-19T06:50:40;10.30;99.90
15426;DHT22;7812;50.072;7.036;2023-04-19T06:53:05;10.60;99.90
15426;DHT22;7812;50.072;7.036;2023-04-19T06:55:31;10.80;99.90
15426;DHT22;7812;50.072;7.036;2023-04-19T06:57:56;10.80;99.90
15426;DHT22;7812;50.072;7.036;2023-04-19T07:00:22;10.80;99.90
15426;DHT22;7812;50.072;7.036;2023-04-19T07:02:49;11.00;99.90
15426;DHT22;7812;50.072;7.036;2023-04-19T07:05:15;11.10;99.90
15426;DHT22;7812;50.072;7.036;2023-04-19T07:07:41;11.20;99.90
15426;DHT22;7812;50.072;7.036;2023-04-19T07:10:08;11.10;99.90
15426;DHT22;7812;50.072;7.036;2023-04-19T07:12:33;11.10;99.90
15426;DHT22;7812;50.072;7.036;2023-04-19T07:14:59;11.00;99.90
15426;DHT22;7812;50.072;7.036;2023-04-19T07:17:25;11.10;99.90
15426;DHT22;7812;50.072;7.036;2023-04-19T07:19:51;11.10;99.90
15426;DHT22;7812;50.072;7.036;2023-04-19T07:22:16;11.10;99.90
15426;DHT22;7812;50.072;7.036;2023-04-19T07:24:42;11.20;99.90
15426;DHT22;7812;50.072;7.036;2023-04-19T07:27:09;11.30;99.90
15426;DHT22;7812;50.072;7.036;2023-04-19T07:29:34;11.40;99.90
15426;DHT22;7812;50.072;7.036;2023-04-19T07:32:01;11.40;99.90
15426;DHT22;7812;50.072;7.036;2023-04-19T07:34:27;11.20;99.90
15426;DHT22;7812;50.072;7.036;2023-04-19T07:36:52;11.40;99.90
15426;DHT22;7812;50.072;7.036;2023-04-19T07:39:18;11.50;99.90
15426;DHT22;7812;50.072;7.036;2023-04-19T07:41:44;11.30;99.90
15426;DHT22;7812;50.072;7.036;2023-04-19T07:44:10;11.20;99.90
15426;DHT22;7812;50.072;7.036;2023-04-19T07:46:37;11.20;99.90
15426;DHT22;7812;50.072;7.036;2023-04-19T07:49:03;11.20;99.90
15426;DHT22;7812;50.072;7.036;2023-04-19T07:51:29;11.30;99.90
15426;DHT22;7812;50.072;7.036;2023-04-19T07:53:54;11.40;99.90
15426;DHT22;7812;50.072;7.036;2023-04-19T07:56:21;11.40;99.90
15426;DHT22;7812;50.072;7.036;2023-04-19T07:58:47;11.30;99.90
15426;DHT22;7812;50.072;7.036;2023-04-19T08:01:12;11.40;99.90
15426;DHT22;7812;50.072;7.036;2023-04-19T08:03:38;11.30;99.90
15426;DHT22;7812;50.072;7.036;2023-04-19T08:06:04;11.10;99.90
15426;DHT22;7812;50.072;7.036;2023-04-19T08:08:32;10.90;99.90
15426;DHT22;7812;50.072;7.036;2023-04-19T08:10:58;11.00;99.90
15426;DHT22;7812;50.072;7.036;2023-04-19T08:13:24;11.00;99.90
15426;DHT22;7812;50.072;7.036;2023-04-19T08:15:49;11.00;99.90
15426;DHT22;7812;50.072;7.036;2023-04-19T08:18:15;10.90;99.90
15426;DHT22;7812;50.072;7.036;2023-04-19T08:20:41;11.00;99.90
15426;DHT22;7812;50.072;7.036;2023-04-19T08:23:07;11.10;99.90
15426;DHT22;7812;50.072;7.036;2023-04-19T08:25:33;11.20;99.90
15426;DHT22;7812;50.072;7.036;2023-04-19T08:28:00;11.30;99.90
15426;DHT22;7812;50.072;7.036;2023-04-19T08:30:26;11.30;99.90
15426;DHT22;7812;50.072;7.036;2023-04-19T08:32:51;11.40;99.90
15426;DHT22;7812;50.072;7.036;2023-04-19T08:35:17;11.60;99.90
15426;DHT22;7812;50.072;7.036;2023-04-19T08:37:43;11.70;99.90
15426;DHT22;7812;50.072;7.036;2023-04-19T08:40:08;11.80;99.90
15426;DHT22;7812;50.072;7.036;2023-04-19T08:42:35;12.10;99.90
15426;DHT22;7812;50.072;7.036;2023-04-19T08:45:02;12.00;99.90
15426;DHT22;7812;50.072;7.036;2023-04-19T08:47:34;11.80;99.90
15426;DHT22;7812;50.072;7.036;2023-04-19T08:50:04;12.00;99.90
15426;DHT22;7812;50.072;7.036;2023-04-19T08:52:35;12.30;99.90
15426;DHT22;7812;50.072;7.036;2023-04-19T08:55:04;12.30;99.90
15426;DHT22;7812;50.072;7.036;2023-04-19T08:57:34;12.60;99.90
15426;DHT22;7812;50.072;7.036;2023-04-19T09:00:01;12.90;99.90
15426;DHT22;7812;50.072;7.036;2023-04-19T09:02:46;13.20;99.90
15426;DHT22;7812;50.072;7.036;2023-04-19T09:05:13;13.80;99.90
15426;DHT22;7812;50.072;7.036;2023-04-19T09:07:39;14.30;99.90
15426;DHT22;7812;50.072;7.036;2023-04-19T09:10:06;14.60;99.90
15426;DHT22;7812;50.072;7.036;2023-04-19T09:12:33;14.70;99.90
15426;DHT22;7812;50.072;7.036;2023-04-19T09:15:00;14.70;99.90
15426;DHT22;7812;50.072;7.036;2023-04-19T09:17:28;14.60;99.90
15426;DHT22;7812;50.072;7.036;2023-04-19T09:19:53;14.50;99.90
15426;DHT22;7812;50.072;7.036;2023-04-19T09:22:19;14.30;99.90
15426;DHT22;7812;50.072;7.036;2023-04-19T09:24:45;13.70;99.90
15426;DHT22;7812;50.072;7.036;2023-04-19T09:27:11;13.40;99.90
15426;DHT22;7812;50.072;7.036;2023-04-19T09:29:38;13.10;99.90
15426;DHT22;7812;50.072;7.036;2023-04-19T09:32:04;12.80;99.90
15426;DHT22;7812;50.072;7.036;2023-04-19T09:34:30;12.70;99.90
15426;DHT22;7812;50.072;7.036;2023-04-19T09:36:56;12.70;99.90
15426;DHT22;7812;50.072;7.036;2023-04-19T09:39:32;13.10;99.90
15426;DHT22;7812;50.072;7.036;2023-04-19T09:42:01;13.30;99.90
15426;DHT22;7812;50.072;7.036;2023-04-19T09:44:27;13.30;99.90
15426;DHT22;7812;50.072;7.036;2023-04-19T09:46:53;13.40;99.90
15426;DHT22;7812;50.072;7.036;2023-04-19T09:49:22;13.40;99.90
15426;DHT22;7812;50.072;7.036;2023-04-19T09:54:19;13.80;99.90
15426;DHT22;7812;50.072;7.036;2023-04-19T09:56:46;13.70;99.90
15426;DHT22;7812;50.072;7.036;2023-04-19T09:59:12;13.50;99.90
15426;DHT22;7812;50.072;7.036;2023-04-19T10:01:41;13.80;99.90
15426;DHT22;7812;50.072;7.036;2023-04-19T10:04:09;13.60;99.90
15426;DHT22;7812;50.072;7.036;2023-04-19T10:06:36;13.40;99.90
15426;DHT22;7812;50.072;7.036;2023-04-19T10:09:04;13.30;99.90
15426;DHT22;7812;50.072;7.036;2023-04-19T10:11:34;13.30;99.90
15426;DHT22;7812;50.072;7.036;2023-04-19T10:14:06;13.20;99.90
15426;DHT22;7812;50.072;7.036;2023-04-19T10:16:33;13.00;99.90
15426;DHT22;7812;50.072;7.036;2023-04-19T10:19:06;13.10;99.90
15426;DHT22;7812;50.072;7.036;2023-04-19T10:21:33;13.40;99.90
15426;DHT22;7812;50.072;7.036;2023-04-19T10:24:00;13.50;99.90
15426;DHT22;7812;50.072;7.036;2023-04-19T10:26:26;13.10;99.90
15426;DHT22;7812;50.072;7.036;2023-04-19T10:28:56;13.20;99.90
15426;DHT22;7812;50.072;7.036;2023-04-19T10:31:24;13.30;99.90
15426;DHT22;7812;50.072;7.036;2023-04-19T10:33:50;13.50;99.90
15426;DHT22;7812;50.072;7.036;2023-04-19T10:36:17;13.90;99.90
15426;DHT22;7812;50.072;7.036;2023-04-19T10:38:47;14.40;99.90
15426;DHT22;7812;50.072;7.036;2023-04-19T10:41:20;14.10;99.90
15426;DHT22;7812;50.072;7.036;2023-04-19T10:49:01;14.70;99.90
15426;DHT22;7812;50.072;7.036;2023-04-19T10:54:07;15.80;99.90
15426;DHT22;7812;50.072;7.036;2023-04-19T11:01:37;16.20;99.90
15426;DHT22;7812;50.072;7.036;2023-04-19T11:07:00;16.50;99.90
15426;DHT22;7812;50.072;7.036;2023-04-19T11:09:33;16.20;99.90
15426;DHT22;7812;50.072;7.036;2023-04-19T11:12:07;17.40;99.90
15426;DHT22;7812;50.072;7.036;2023-04-19T11:14:42;18.10;99.90
15426;DHT22;7812;50.072;7.036;2023-04-19T11:17:23;18.60;99.90
15426;DHT22;7812;50.072;7.036;2023-04-19T11:20:06;19.00;99.90
15426;DHT22;7812;50.072;7.036;2023-04-19T11:22:39;18.30;99.90
15426;DHT22;7812;50.072;7.036;2023-04-19T11:27:44;17.00;99.90
15426;DHT22;7812;50.072;7.036;2023-04-19T11:30:15;16.40;99.90
15426;DHT22;7812;50.072;7.036;2023-04-19T11:32:51;16.00;99.90
15426;DHT22;7812;50.072;7.036;2023-04-19T11:35:19;15.20;99.90
15426;DHT22;7812;50.072;7.036;2023-04-19T11:37:45;14.90;99.90
15426;DHT22;7812;50.072;7.036;2023-04-19T11:40:14;14.60;99.90
15426;DHT22;7812;50.072;7.036;2023-04-19T11:42:41;14.50;99.90
15426;DHT22;7812;50.072;7.036;2023-04-19T11:45:08;14.60;99.90
15426;DHT22;7812;50.072;7.036;2023-04-19T11:47:34;14.60;99.90
15426;DHT22;7812;50.072;7.036;2023-04-19T11:50:34;15.00;99.90
15426;DHT22;7812;50.072;7.036;2023-04-19T11:53:12;15.50;99.90
15426;DHT22;7812;50.072;7.036;2023-04-19T11:55:40;15.90;99.90
15426;DHT22;7812;50.072;7.036;2023-04-19T11:58:07;15.80;99.90
15426;DHT22;7812;50.072;7.036;2023-04-19T12:00:35;15.70;99.90
15426;DHT22;7812;50.072;7.036;2023-04-19T12:03:01;15.30;99.90
15426;DHT22;7812;50.072;7.036;2023-04-19T12:05:27;15.60;99.90
15426;DHT22;7812;50.072;7.036;2023-04-19T12:08:11;16.10;99.90
15426;DHT22;7812;50.072;7.036;2023-04-19T12:10:37;16.60;99.90
15426;DHT22;7812;50.072;7.036;2023-04-19T12:13:16;16.00;99.90
15426;DHT22;7812;50.072;7.036;2023-04-19T12:15:43;15.60;99.90
15426;DHT22;7812;50.072;7.036;2023-04-19T12:18:09;16.00;99.90
15426;DHT22;7812;50.072;7.036;2023-04-19T12:20:37;17.30;99.90
15426;DHT22;7812;50.072;7.036;2023-04-19T12:23:03;18.00;99.90
15426;DHT22;7812;50.072;7.036;2023-04-19T12:25:32;17.90;99.90
15426;DHT22;7812;50.072;7.036;2023-04-19T12:28:01;16.60;99.90
15426;DHT22;7812;50.072;7.036;2023-04-19T12:30:27;16.40;99.90
15426;DHT22;7812;50.072;7.036;2023-04-19T12:32:54;16.90;99.90
15426;DHT22;7812;50.072;7.036;2023-04-19T12:35:26;17.60;99.90
15426;DHT22;7812;50.072;7.036;2023-04-19T12:37:53;17.70;99.90
15426;DHT22;7812;50.072;7.036;2023-04-19T12:40:19;17.30;99.90
15426;DHT22;7812;50.072;7.036;2023-04-19T12:42:45;16.60;99.90
15426;DHT22;7812;50.072;7.036;2023-04-19T12:45:11;16.60;99.90
15426;DHT22;7812;50.072;7.036;2023-04-19T12:47:38;16.90;99.90
15426;DHT22;7812;50.072;7.036;2023-04-19T12:50:04;17.30;99.90
15426;DHT22;7812;50.072;7.036;2023-04-19T12:52:30;17.80;99.90
15426;DHT22;7812;50.072;7.036;2023-04-19T12:54:56;18.90;99.90
15426;DHT22;7812;50.072;7.036;2023-04-19T12:57:21;19.40;99.90
15426;DHT22;7812;50.072;7.036;2023-04-19T12:59:47;18.50;99.90
15426;DHT22;7812;50.072;7.036;2023-04-19T13:02:13;17.60;99.90
15426;DHT22;7812;50.072;7.036;2023-04-19T13:04:38;17.60;99.90
15426;DHT22;7812;50.072;7.036;2023-04-19T13:07:04;18.10;99.90
15426;DHT22;7812;50.072;7.036;2023-04-19T13:09:30;18.30;99.90
15426;DHT22;7812;50.072;7.036;2023-04-19T13:11:58;18.90;99.90
15426;DHT22;7812;50.072;7.036;2023-04-19T13:14:25;17.80;99.90
15426;DHT22;7812;50.072;7.036;2023-04-19T13:16:51;17.70;99.90
15426;DHT22;7812;50.072;7.036;2023-04-19T13:19:17;17.50;99.90
15426;DHT22;7812;50.072;7.036;2023-04-19T13:21:43;17.70;99.40
15426;DHT22;7812;50.072;7.036;2023-04-19T13:24:09;16.30;98.50
15426;DHT22;7812;50.072;7.036;2023-04-19T13:26:35;16.40;99.70
15426;DHT22;7812;50.072;7.036;2023-04-19T13:29:01;17.00;99.90
15426;DHT22;7812;50.072;7.036;2023-04-19T13:31:26;17.40;98.20
15426;DHT22;7812;50.072;7.036;2023-04-19T13:33:53;17.30;97.80
15426;DHT22;7812;50.072;7.036;2023-04-19T13:36:19;17.60;97.40
15426;DHT22;7812;50.072;7.036;2023-04-19T13:38:45;17.30;95.40
15426;DHT22;7812;50.072;7.036;2023-04-19T13:41:11;16.80;95.00
15426;DHT22;7812;50.072;7.036;2023-04-19T13:43:36;16.60;95.60
15426;DHT22;7812;50.072;7.036;2023-04-19T13:46:02;16.50;95.80
15426;DHT22;7812;50.072;7.036;2023-04-19T13:48:28;16.40;97.20
15426;DHT22;7812;50.072;7.036;2023-04-19T13:50:55;16.90;96.30
15426;DHT22;7812;50.072;7.036;2023-04-19T13:53:21;16.60;96.80
15426;DHT22;7812;50.072;7.036;2023-04-19T13:55:49;16.30;97.60
15426;DHT22;7812;50.072;7.036;2023-04-19T13:58:15;16.30;97.40
15426;DHT22;7812;50.072;7.036;2023-04-19T14:00:40;16.10;97.40
15426;DHT22;7812;50.072;7.036;2023-04-19T14:03:06;16.30;97.50
15426;DHT22;7812;50.072;7.036;2023-04-19T14:05:31;16.40;97.60
15426;DHT22;7812;50.072;7.036;2023-04-19T14:07:58;16.70;97.10
15426;DHT22;7812;50.072;7.036;2023-04-19T14:10:23;16.40;96.70
15426;DHT22;7812;50.072;7.036;2023-04-19T14:12:50;16.10;96.70
15426;DHT22;7812;50.072;7.036;2023-04-19T14:15:21;16.00;95.20
15426;DHT22;7812;50.072;7.036;2023-04-19T14:17:48;16.00;95.70
15426;DHT22;7812;50.072;7.036;2023-04-19T14:20:15;15.90;95.50
15426;DHT22;7812;50.072;7.036;2023-04-19T14:22:41;16.10;94.30
15426;DHT22;7812;50.072;7.036;2023-04-19T14:25:08;16.00;94.50
15426;DHT22;7812;50.072;7.036;2023-04-19T14:27:34;16.30;92.60
15426;DHT22;7812;50.072;7.036;2023-04-19T14:30:00;16.00;91.20
15426;DHT22;7812;50.072;7.036;2023-04-19T14:32:26;16.00;90.30
15426;DHT22;7812;50.072;7.036;2023-04-19T14:34:52;15.60;88.50
15426;DHT22;7812;50.072;7.036;2023-04-19T14:37:21;15.50;86.20
15426;DHT22;7812;50.072;7.036;2023-04-19T14:39:47;15.50;85.40
15426;DHT22;7812;50.072;7.036;2023-04-19T14:42:13;15.30;86.20
15426;DHT22;7812;50.072;7.036;2023-04-19T14:44:39;15.10;85.90
15426;DHT22;7812;50.072;7.036;2023-04-19T14:47:05;15.40;86.00
15426;DHT22;7812;50.072;7.036;2023-04-19T14:49:30;15.70;86.10
15426;DHT22;7812;50.072;7.036;2023-04-19T14:51:56;15.50;86.80
15426;DHT22;7812;50.072;7.036;2023-04-19T14:54:22;15.30;85.30
15426;DHT22;7812;50.072;7.036;2023-04-19T14:56:47;15.20;86.20
15426;DHT22;7812;50.072;7.036;2023-04-19T14:59:13;15.30;87.90
15426;DHT22;7812;50.072;7.036;2023-04-19T15:01:39;15.60;90.00
15426;DHT22;7812;50.072;7.036;2023-04-19T15:04:07;15.60;86.70
15426;DHT22;7812;50.072;7.036;2023-04-19T15:06:33;15.60;87.80
15426;DHT22;7812;50.072;7.036;2023-04-19T15:08:59;15.70;88.40
15426;DHT22;7812;50.072;7.036;2023-04-19T15:11:24;15.50;87.30
15426;DHT22;7812;50.072;7.036;2023-04-19T15:13:50;15.50;88.80
15426;DHT22;7812;50.072;7.036;2023-04-19T15:16:16;15.30;88.70
15426;DHT22;7812;50.072;7.036;2023-04-19T15:18:42;15.60;87.00
15426;DHT22;7812;50.072;7.036;2023-04-19T15:21:07;15.30;85.30
15426;DHT22;7812;50.072;7.036;2023-04-19T15:23:33;15.40;85.80
15426;DHT22;7812;50.072;7.036;2023-04-19T15:25:59;15.60;85.90
15426;DHT22;7812;50.072;7.036;2023-04-19T15:28:25;15.50;82.80
15426;DHT22;7812;50.072;7.036;2023-04-19T15:31:02;15.30;83.50
15426;DHT22;7812;50.072;7.036;2023-04-19T15:33:28;15.20;78.90
15426;DHT22;7812;50.072;7.036;2023-04-19T15:35:55;14.80;77.50
15426;DHT22;7812;50.072;7.036;2023-04-19T15:38:22;14.60;77.60
15426;DHT22;7812;50.072;7.036;2023-04-19T15:40:48;14.60;77.80
15426;DHT22;7812;50.072;7.036;2023-04-19T15:43:14;14.50;77.90
15426;DHT22;7812;50.072;7.036;2023-04-19T15:45:39;14.60;79.50
15426;DHT22;7812;50.072;7.036;2023-04-19T15:48:05;14.60;79.60
15426;DHT22;7812;50.072;7.036;2023-04-19T15:50:32;14.50;78.20
15426;DHT22;7812;50.072;7.036;2023-04-19T15:52:58;14.60;78.80
15426;DHT22;7812;50.072;7.036;2023-04-19T15:55:23;14.60;78.00
15426;DHT22;7812;50.072;7.036;2023-04-19T15:57:49;14.50;79.50
15426;DHT22;7812;50.072;7.036;2023-04-19T16:00:15;14.40;79.00
15426;DHT22;7812;50.072;7.036;2023-04-19T16:02:41;14.40;78.30
15426;DHT22;7812;50.072;7.036;2023-04-19T16:05:08;14.60;78.30
15426;DHT22;7812;50.072;7.036;2023-04-19T16:07:35;14.60;80.40